EGNM Airport Information

Runway Information
Runway 14 Length 7382 ft width 150 ft
Elevation 673 ft Threshold 958 ft Heading 138
Runway 32 Length 7382 ft Width 150 ft
Elevation 662 ft Threshold 962 ft Heading 318
Airport Frequencies
Type APP Name APP Frequency 123.75 MHZ
Type ATIS Name ATIS Frequency 118.025 MHZ
Type ILS Rw 32/ Name Frequency 110.9 MHZ
Type TWR Name TWR Frequency 120.3 MHZ
Airport Navaids
Type NDB Name Leeds Bradford Frequency 403 KHZ
Airport Weather Information & NOTAM

Deprecated: The each() function is deprecated. This message will be suppressed on further calls in /home/jyhjkdzw/public_html/lib/functions.php on line 130
ADDS - METARS form results

(1736 UTC 16 June 2021)
Data provider http://aviationweather.gov/metar/data/
 
METAR text: EGNM 161720Z 28012KT CAVOK 20/15 Q1009
Conditions at: EGNM (LEEDS AND BRADFO, GB) observed 1720 UTC 16 June 2021
Temperature: 20.0°C (68°F)
Dewpoint: 15.0°C (59°F) [RH = 73%]
Pressure (altimeter): 29.79 inches Hg (1009.0 mb)
Winds: from the W (280 degrees) at 14 MPH (12 knots; 6.2 m/s)
Visibility: 6 or more miles (10+ km)
Ceiling: ceiling and visibility are OK
Clouds: unknown
Weather: no significant weather observed at this time

METAR text: EGNM 161650Z 29011KT 9999 FEW047 21/15 Q1009
Conditions at: EGNM (LEEDS AND BRADFO, GB) observed 1650 UTC 16 June 2021
Temperature: 21.0°C (70°F)
Dewpoint: 15.0°C (59°F) [RH = 69%]
Pressure (altimeter): 29.79 inches Hg (1009.0 mb)
Winds: from the WNW (290 degrees) at 13 MPH (11 knots; 5.7 m/s)
Visibility: 6 or more miles (10+ km)
Ceiling: at least 12,000 feet AGL
Clouds: few clouds at 4700 feet AGL
Weather: no significant weather observed at this time

Forecast for: EGNM (LEEDS AND BRADFO, GB)
Text: TAF EGNM 161657Z 1618/1718 30006KT 9999 FEW045
Forecast period: 1800 UTC 16 June 2021 to 1800 UTC 17 June 2021
Forecast type: FROM: standard forecast or significant change
Winds: from the WNW (300 degrees) at 7 MPH (6 knots; 3.1 m/s)
Visibility: 6 or more miles (10+ km)
Ceiling: at least 12,000 feet AGL
Clouds: few clouds at 4500 feet AGL
Weather: no significant weather forecast for this period
Text: PROB30
Forecast period: 0300 to 0600 UTC 17 June 2021
Forecast type: TEMPORARY: The following changes expected for less than half the time period
Visibility: 2.49 miles (4.01 km)
Ceiling: 1200 feet AGL
Clouds: broken clouds at 1200 feet AGL
Weather: +TSRA  (heavy rain associated with thunderstorm(s))